LFRN/RNS METAR and TAF weather

Enter ICAO airport designator
Station Type Date Time Source
LFRN METAR 2020/10/29 16:30 UTC NOAA

LFRN 291630Z AUTO 22009KT 9999 OVC034 16/12 Q1020 TEMPO 4000 DZ BKN008


Station Type Date Time Source
LFRN Decoded METAR 2020/10/29 16:30 UTC NOAA

Rennes, France (LFRN) 48-04N 001-44W 37M
Oct 29, 2020 - 12:30 PM EDT / 2020.10.29 1630 UTC
Wind: from the SW (220 degrees) at 10 MPH (9 KT):0
Visibility: greater than 7 mile(s):0
Sky conditions: overcast
Temperature: 60 F (16 C)
Dew Point: 53 F (12 C)
Relative Humidity: 77%
Pressure (altimeter): 30.12 in. Hg (1020 hPa)
ob: LFRN 291630Z AUTO 22009KT 9999 OVC034 16/12 Q1020 TEMPO 4000 DZ BKN008
cycle: 16

Station Type Date Time Source
LFRN TAF 2020/10/29 12:21 UTC NOAA

TAF LFRN 291100Z 2912/3012 23010KT 9999 BKN020 PROB30
TEMPO 2912/2916 BKN013 PROB30
TEMPO 2914/2917 23015G25KT
BECMG 2916/2918 BKN013
TEMPO 2918/3009 4000 DZ BKN008
BECMG 3009/3011 BKN020

Example: see airport list